Time;durP1;ratioP1;P1;durP2;ratioP2;P2;SDS_P1;SDS_P2;PMS_P1;PMS_P2;Temp;Humidity;BMP_temperature;BMP_pressure;BME280_temperature;BME280_humidity;BME280_pressure;Samples;Min_cycle;Max_cycle;Signal;HPM_P1;HPM_P2
2022/02/04 00:24:02;;;;;;;3.75;2.20;;;;;;;;;;4996618;28;20180;-77
2022/02/04 00:26:33;;;;;;;3.88;2.20;;;;;;;;;;4995268;28;20069;-77
2022/02/04 00:31:35;;;;;;;3.35;1.70;;;;;;;;;;5015238;28;20060;-77
2022/02/04 00:34:11;;;;;;;2.78;1.75;;;;;;;;;;5013521;28;20045;-77
2022/02/04 00:39:16;;;;;;;3.03;1.65;;;;;;;;;;5006745;28;20037;-77
2022/02/04 00:41:43;;;;;;;4.22;2.10;;;;;;;;;;4995705;28;20531;-77
2022/02/04 00:44:17;;;;;;;3.72;2.00;;;;;;;;;;4995171;28;20093;-77
2022/02/04 00:49:31;;;;;;;3.40;1.88;;;;;;;;;;5010673;28;20033;-77
2022/02/04 00:52:20;;;;;;;8.25;2.85;;;;;;;;;;5014907;28;20041;-77
2022/02/04 01:27:19;;;;;;;2.60;1.40;;;;;;;;;;4997176;28;20034;-77
2022/02/04 01:29:59;;;;;;;2.90;1.80;;;;;;;;;;5028908;28;20495;-77
2022/02/04 01:32:24;;;;;;;2.70;1.98;;;;;;;;;;5010303;28;20507;-77
2022/02/04 01:34:50;;;;;;;4.03;1.80;;;;;;;;;;5001530;28;20029;-76
2022/02/04 01:37:15;;;;;;;3.10;1.73;;;;;;;;;;5013801;28;20041;-77
2022/02/04 01:39:41;;;;;;;2.85;1.92;;;;;;;;;;5013813;28;20420;-77
2022/02/04 01:42:07;;;;;;;2.67;1.80;;;;;;;;;;4994248;28;20467;-76
2022/02/04 01:44:32;;;;;;;2.65;1.50;;;;;;;;;;5010393;28;20057;-77
2022/02/04 01:46:58;;;;;;;3.03;2.13;;;;;;;;;;5009035;28;20110;-77
2022/02/04 01:49:24;;;;;;;2.80;1.73;;;;;;;;;;5013601;28;20037;-77
2022/02/04 01:51:50;;;;;;;2.28;1.40;;;;;;;;;;5013873;28;20037;-77
2022/02/04 01:54:15;;;;;;;3.28;1.40;;;;;;;;;;5013522;28;20141;-77
2022/02/04 01:56:41;;;;;;;3.30;1.45;;;;;;;;;;5013909;28;20025;-77
2022/02/04 01:59:06;;;;;;;2.33;1.50;;;;;;;;;;5013575;28;20037;-76
2022/02/04 02:01:32;;;;;;;2.42;1.52;;;;;;;;;;5008340;28;20128;-77
2022/02/04 02:04:00;;;;;;;1.92;1.08;;;;;;;;;;4996521;28;20104;-77
2022/02/04 02:06:52;;;;;;;2.88;1.63;;;;;;;;;;4997929;28;20068;-77
2022/02/04 02:09:18;;;;;;;2.58;1.48;;;;;;;;;;5030025;28;20120;-77
2022/02/04 02:11:47;;;;;;;2.30;1.50;;;;;;;;;;5028780;28;20044;-76
2022/02/04 02:14:14;;;;;;;2.65;1.58;;;;;;;;;;5011220;28;20050;-77
2022/02/04 02:33:08;;;;;;;2.33;1.42;;;;;;;;;;4993810;28;20034;-76
2022/02/04 02:33:50;;;;;;;2.55;1.35;;;;;;;;;;5013241;28;20575;-76
2022/02/04 02:51:58;;;;;;;2.20;1.45;;;;;;;;;;5018692;28;20037;-77
2022/02/04 02:59:22;;;;;;;2.78;1.42;;;;;;;;;;5012705;28;20034;-77
2022/02/04 03:01:50;;;;;;;2.28;1.35;;;;;;;;;;4997616;28;20111;-77
2022/02/04 03:04:16;;;;;;;2.60;1.63;;;;;;;;;;5019639;28;20570;-77
2022/02/04 03:06:46;;;;;;;2.40;1.25;;;;;;;;;;5000765;28;20041;-77
2022/02/04 03:09:12;;;;;;;1.88;0.90;;;;;;;;;;4998977;28;20040;-76
2022/02/04 03:11:38;;;;;;;2.30;1.30;;;;;;;;;;4996490;28;20099;-76
2022/02/04 03:14:03;;;;;;;2.33;1.60;;;;;;;;;;4997228;28;20042;-77
2022/02/04 03:16:29;;;;;;;1.80;1.05;;;;;;;;;;5014714;28;20042;-76
2022/02/04 03:18:56;;;;;;;2.60;1.15;;;;;;;;;;4994835;28;20041;-76
2022/02/04 03:21:29;;;;;;;3.05;1.15;;;;;;;;;;5012105;28;20560;-77
2022/02/04 03:24:06;;;;;;;2.40;1.10;;;;;;;;;;4997495;28;20084;-77
2022/02/04 03:29:19;;;;;;;2.03;1.23;;;;;;;;;;5018311;28;20029;-77
2022/02/04 03:31:50;;;;;;;2.10;1.20;;;;;;;;;;5007186;28;20044;-76
2022/02/04 03:34:16;;;;;;;1.80;1.05;;;;;;;;;;4999180;28;20091;-77
2022/02/04 03:36:42;;;;;;;1.83;1.23;;;;;;;;;;4999652;28;20033;-77
2022/02/04 03:39:07;;;;;;;2.28;1.10;;;;;;;;;;4999170;28;20518;-77
2022/02/04 03:41:33;;;;;;;2.15;1.23;;;;;;;;;;5031393;28;20144;-76
2022/02/04 03:43:58;;;;;;;3.75;1.30;;;;;;;;;;4999137;28;20033;-77
2022/02/04 03:46:24;;;;;;;2.15;1.02;;;;;;;;;;5014483;28;20095;-77
2022/02/04 03:48:49;;;;;;;1.83;1.00;;;;;;;;;;5015154;28;20373;-76
2022/02/04 03:51:15;;;;;;;2.13;1.30;;;;;;;;;;4999413;28;20458;-77
2022/02/04 03:53:40;;;;;;;1.95;0.90;;;;;;;;;;5015184;28;20045;-76
2022/02/04 03:56:06;;;;;;;1.70;0.93;;;;;;;;;;4999192;28;20033;-76
2022/02/04 03:58:36;;;;;;;1.98;1.10;;;;;;;;;;5015117;28;20108;-77
2022/02/04 04:01:02;;;;;;;1.92;1.25;;;;;;;;;;4996842;28;20033;-76
2022/02/04 04:03:27;;;;;;;1.63;0.88;;;;;;;;;;5011542;28;20046;-77
2022/02/04 04:05:53;;;;;;;2.00;1.40;;;;;;;;;;4995361;28;20053;-77
2022/02/04 04:08:19;;;;;;;1.80;0.90;;;;;;;;;;5011689;28;20499;-77
2022/02/04 04:10:44;;;;;;;1.85;1.00;;;;;;;;;;4989559;28;20038;-76
2022/02/04 04:13:10;;;;;;;2.25;1.00;;;;;;;;;;4997045;28;20384;-77
2022/02/04 04:15:36;;;;;;;2.28;1.20;;;;;;;;;;4998270;28;20048;-77
2022/02/04 04:18:02;;;;;;;1.77;1.00;;;;;;;;;;5014576;28;20029;-77
2022/02/04 04:20:28;;;;;;;2.15;1.20;;;;;;;;;;5031613;28;20045;-77
2022/02/04 04:22:54;;;;;;;1.42;0.80;;;;;;;;;;5015133;28;20554;-77
2022/02/04 04:25:19;;;;;;;1.95;0.95;;;;;;;;;;5014866;28;20044;-76
2022/02/04 04:27:45;;;;;;;1.60;1.00;;;;;;;;;;5014245;28;20026;-77
2022/02/04 04:30:15;;;;;;;2.22;1.00;;;;;;;;;;5014997;28;20045;-77
2022/02/04 04:32:41;;;;;;;1.48;0.70;;;;;;;;;;4998562;28;20040;-77
2022/02/04 04:35:10;;;;;;;1.63;0.88;;;;;;;;;;5004023;28;20046;-77
2022/02/04 04:37:39;;;;;;;1.98;0.90;;;;;;;;;;5011481;28;20029;-77
2022/02/04 04:40:28;;;;;;;1.38;0.80;;;;;;;;;;4995414;28;20053;-77
2022/02/04 05:26:56;;;;;;;1.23;0.90;;;;;;;;;;4997411;28;20088;-77
2022/02/04 05:29:14;;;;;;;1.88;0.85;;;;;;;;;;5009209;28;20512;-77
2022/02/04 05:31:39;;;;;;;1.08;0.70;;;;;;;;;;4995046;28;20037;-77
2022/02/04 05:34:05;;;;;;;1.40;0.73;;;;;;;;;;4995344;28;20045;-77
2022/02/04 05:36:33;;;;;;;1.60;0.75;;;;;;;;;;4997692;28;20392;-77
2022/02/04 05:38:59;;;;;;;1.80;0.80;;;;;;;;;;4994796;28;20524;-77
2022/02/04 05:41:30;;;;;;;1.10;0.65;;;;;;;;;;4994202;28;20125;-77
2022/02/04 05:43:57;;;;;;;1.05;0.57;;;;;;;;;;5003104;28;20068;-77
2022/02/04 05:46:30;;;;;;;1.15;0.70;;;;;;;;;;5010165;28;20045;-77
2022/02/04 05:48:57;;;;;;;1.25;0.90;;;;;;;;;;5010371;28;20037;-77
2022/02/04 05:51:40;;;;;;;1.45;0.77;;;;;;;;;;4996353;28;20076;-77
2022/02/04 05:54:42;;;;;;;1.38;0.70;;;;;;;;;;4998677;28;20038;-77
2022/02/04 05:57:15;;;;;;;1.48;0.80;;;;;;;;;;4996556;28;20463;-76
2022/02/04 06:00:15;;;;;;;1.67;0.77;;;;;;;;;;4997257;28;20100;-77
2022/02/04 06:02:54;;;;;;;1.23;0.70;;;;;;;;;;5001391;28;20049;-77
2022/02/04 06:11:13;;;;;;;1.77;0.90;;;;;;;;;;5016801;28;20094;-74
2022/02/04 06:24:31;;;;;;;1.58;0.77;;;;;;;;;;5014457;28;20042;-77
2022/02/04 06:26:57;;;;;;;1.38;0.90;;;;;;;;;;4996243;28;20076;-77
2022/02/04 06:29:23;;;;;;;2.90;0.80;;;;;;;;;;4996950;28;20030;-76
2022/02/04 06:31:48;;;;;;;1.45;0.70;;;;;;;;;;5021700;28;20045;-78
2022/02/04 06:34:14;;;;;;;1.20;0.68;;;;;;;;;;5011472;28;20029;-78
2022/02/04 06:36:39;;;;;;;2.08;0.82;;;;;;;;;;4992155;28;20061;-77
2022/02/04 06:39:05;;;;;;;1.67;1.02;;;;;;;;;;4999619;28;20041;-77
2022/02/04 06:41:30;;;;;;;2.08;0.60;;;;;;;;;;5000200;28;20115;-77
2022/02/04 06:43:56;;;;;;;1.90;0.85;;;;;;;;;;5000434;28;20037;-77
2022/02/04 06:46:21;;;;;;;1.73;0.70;;;;;;;;;;5022649;28;20041;-77
2022/02/04 06:48:49;;;;;;;1.48;0.80;;;;;;;;;;4995867;28;20045;-75
2022/02/04 06:51:15;;;;;;;2.10;0.70;;;;;;;;;;5011864;28;20038;-78
2022/02/04 06:53:40;;;;;;;2.05;0.77;;;;;;;;;;4995847;28;20041;-77
2022/02/04 06:56:06;;;;;;;6.70;1.10;;;;;;;;;;4996313;28;20046;-78
2022/02/04 06:58:32;;;;;;;2.17;1.00;;;;;;;;;;4997068;28;20040;-77
2022/02/04 07:00:57;;;;;;;2.15;0.70;;;;;;;;;;5014140;28;20120;-77
2022/02/04 07:03:23;;;;;;;2.45;0.80;;;;;;;;;;4991840;28;20037;-77
2022/02/04 07:05:56;;;;;;;89.10;61.60;;;;;;;;;;4993431;28;20056;-77
2022/02/04 07:08:28;;;;;;;371.67;275.17;;;;;;;;;;5033018;28;20037;-77
2022/02/04 07:13:46;;;;;;;215.07;157.88;;;;;;;;;;5017142;28;20113;-76
2022/02/04 07:21:30;;;;;;;154.25;115.85;;;;;;;;;;5002154;28;20066;-77
2022/02/04 07:23:55;;;;;;;126.15;96.25;;;;;;;;;;5006279;28;20501;-77
2022/02/04 07:26:21;;;;;;;132.70;96.70;;;;;;;;;;5000814;28;20045;-77
2022/02/04 07:28:46;;;;;;;131.77;93.65;;;;;;;;;;4984642;28;20053;-76
2022/02/04 07:31:14;;;;;;;118.30;87.70;;;;;;;;;;4981480;28;20412;-76
2022/02/04 07:33:44;;;;;;;114.40;87.10;;;;;;;;;;4967668;28;20045;-77
2022/02/04 07:41:39;;;;;;;106.68;76.72;;;;;;;;;;5023873;28;20495;-76
2022/02/04 07:44:05;;;;;;;103.00;78.57;;;;;;;;;;4995803;28;20109;-77
2022/02/04 07:46:30;;;;;;;103.07;71.28;;;;;;;;;;5024057;28;20041;-77
2022/02/04 07:48:56;;;;;;;93.80;67.90;;;;;;;;;;5008414;28;20034;-77
2022/02/04 07:51:21;;;;;;;85.15;63.90;;;;;;;;;;5015479;28;20037;-77
2022/02/04 07:53:47;;;;;;;89.80;64.05;;;;;;;;;;5009964;28;20057;-77
2022/02/04 07:56:19;;;;;;;91.43;65.18;;;;;;;;;;4995626;28;20048;-77
2022/02/04 07:58:52;;;;;;;80.60;59.78;;;;;;;;;;4996576;28;20458;-77
2022/02/04 08:01:23;;;;;;;83.18;60.40;;;;;;;;;;4996878;28;20042;-77
2022/02/04 08:03:55;;;;;;;80.77;58.00;;;;;;;;;;4995428;28;20041;-77
2022/02/04 08:06:23;;;;;;;77.88;56.38;;;;;;;;;;4996230;28;20053;-77
2022/02/04 08:09:01;;;;;;;73.32;54.40;;;;;;;;;;4996098;28;20042;-77
2022/02/04 08:11:49;;;;;;;71.05;51.67;;;;;;;;;;5011965;28;20049;-77
2022/02/04 08:20:03;;;;;;;83.38;59.00;;;;;;;;;;4994999;28;20033;-77
2022/02/04 08:22:43;;;;;;;83.22;64.97;;;;;;;;;;5011661;28;20642;-77
2022/02/04 08:35:59;;;;;;;94.72;67.80;;;;;;;;;;5009767;28;20042;-77
2022/02/04 08:38:38;;;;;;;90.50;64.90;;;;;;;;;;5017913;28;20151;-77
2022/02/04 08:54:37;;;;;;;79.35;56.63;;;;;;;;;;5015953;28;20034;-77
2022/02/04 08:57:07;;;;;;;69.45;53.22;;;;;;;;;;5000065;28;20444;-77
2022/02/04 08:59:51;;;;;;;70.65;51.55;;;;;;;;;;5030727;28;20038;-77
2022/02/04 09:02:30;;;;;;;65.60;49.15;;;;;;;;;;5016822;28;20045;-76
2022/02/04 09:04:58;;;;;;;67.32;50.15;;;;;;;;;;5001438;28;20048;-77
2022/02/04 09:07:26;;;;;;;66.53;49.05;;;;;;;;;;5014391;28;20053;-77
2022/02/04 09:09:55;;;;;;;62.88;46.53;;;;;;;;;;5023495;28;20034;-76
2022/02/04 09:22:57;;;;;;;56.72;41.55;;;;;;;;;;4994523;28;20041;-76
2022/02/04 09:25:22;;;;;;;53.97;38.97;;;;;;;;;;4994300;28;20034;-77
2022/02/04 09:27:48;;;;;;;54.63;39.47;;;;;;;;;;4994676;28;20046;-76
2022/02/04 09:30:15;;;;;;;52.85;38.10;;;;;;;;;;4994111;28;20044;-77
2022/02/04 09:32:41;;;;;;;51.33;36.58;;;;;;;;;;5012008;28;20048;-77
2022/02/04 09:35:12;;;;;;;48.40;36.63;;;;;;;;;;5020742;28;20041;-76
2022/02/04 09:37:37;;;;;;;45.60;34.30;;;;;;;;;;5018626;28;20156;-76
2022/02/04 09:40:04;;;;;;;44.65;30.60;;;;;;;;;;5001469;28;20037;-77
2022/02/04 09:42:30;;;;;;;49.60;37.72;;;;;;;;;;5034397;28;20037;-77
2022/02/04 09:44:55;;;;;;;41.45;33.08;;;;;;;;;;4984836;28;20044;-76
2022/02/04 09:47:23;;;;;;;42.63;31.02;;;;;;;;;;5018048;28;20037;-76
2022/02/04 09:49:54;;;;;;;41.15;30.33;;;;;;;;;;5001904;28;20038;-76
2022/02/04 10:17:04;;;;;;;32.53;24.40;;;;;;;;;;5018152;28;20044;-77
2022/02/04 10:19:28;;;;;;;31.20;22.35;;;;;;;;;;5020343;28;20474;-76
2022/02/04 10:21:58;;;;;;;29.98;22.05;;;;;;;;;;5018003;28;20037;-77
2022/02/04 10:24:25;;;;;;;28.70;22.23;;;;;;;;;;5017266;28;20427;-77
2022/02/04 10:27:20;;;;;;;26.83;20.83;;;;;;;;;;4984781;28;20040;-76
2022/02/04 10:29:59;;;;;;;28.13;19.42;;;;;;;;;;5018773;28;20103;-77
2022/02/04 10:32:30;;;;;;;27.85;19.58;;;;;;;;;;5033486;28;20030;-77
2022/02/04 10:35:06;;;;;;;28.17;20.70;;;;;;;;;;5025558;28;20037;-76
2022/02/04 10:37:34;;;;;;;26.33;18.05;;;;;;;;;;5013792;28;20041;-77
2022/02/04 10:40:14;;;;;;;24.42;16.85;;;;;;;;;;4997228;28;20042;-77
2022/02/04 10:42:56;;;;;;;24.92;17.67;;;;;;;;;;5000431;28;20041;-76
2022/02/04 10:45:52;;;;;;;23.35;17.10;;;;;;;;;;5001682;28;20037;-76
2022/02/04 10:48:29;;;;;;;23.60;16.38;;;;;;;;;;4998881;28;20076;-77
2022/02/04 10:54:22;;;;;;;22.75;15.80;;;;;;;;;;5004653;28;20199;-76
2022/02/04 11:04:46;;;;;;;18.58;13.25;;;;;;;;;;4998658;28;20108;-77
2022/02/04 11:32:24;;;;;;;15.63;11.52;;;;;;;;;;5018349;28;20034;-77
2022/02/04 11:55:02;;;;;;;13.73;9.35;;;;;;;;;;5021094;28;20033;-77
2022/02/04 11:57:31;;;;;;;15.10;8.30;;;;;;;;;;4988545;28;20722;-77
2022/02/04 12:00:21;;;;;;;13.63;8.65;;;;;;;;;;4999476;28;20064;-77
2022/02/04 12:02:50;;;;;;;13.05;8.43;;;;;;;;;;5015483;28;20045;-77
2022/02/04 12:05:18;;;;;;;14.35;8.93;;;;;;;;;;4998749;28;20040;-77
2022/02/04 12:07:52;;;;;;;14.23;8.55;;;;;;;;;;5023405;28;20412;-77
2022/02/04 12:10:21;;;;;;;13.23;8.55;;;;;;;;;;5012645;28;20156;-77
2022/02/04 12:12:52;;;;;;;13.98;8.60;;;;;;;;;;5031345;28;20416;-76
2022/02/04 12:15:37;;;;;;;11.30;7.32;;;;;;;;;;5025715;28;20030;-77
2022/02/04 12:18:12;;;;;;;14.27;8.25;;;;;;;;;;5011501;28;20038;-77
2022/02/04 12:20:44;;;;;;;13.13;8.13;;;;;;;;;;5011612;28;20040;-77
2022/02/04 12:23:32;;;;;;;14.27;7.00;;;;;;;;;;5013875;28;20049;-77
2022/02/04 12:26:10;;;;;;;14.43;7.97;;;;;;;;;;5010408;28;20034;-77
2022/02/04 12:29:03;;;;;;;11.40;7.22;;;;;;;;;;4996443;28;20038;-77
2022/02/04 12:31:36;;;;;;;12.88;7.50;;;;;;;;;;5018815;28;20044;-77
2022/02/04 12:34:01;;;;;;;10.00;6.60;;;;;;;;;;5003032;28;20045;-77
2022/02/04 12:36:33;;;;;;;14.38;7.00;;;;;;;;;;5021853;28;20099;-77
2022/02/04 12:39:03;;;;;;;;;;;;;;;;;;5020555;28;20108;-77
2022/02/04 12:41:33;;;;;;;10.90;7.05;;;;;;;;;;5018523;28;19960;-77
2022/02/04 12:44:00;;;;;;;11.95;6.25;;;;;;;;;;4990071;28;20096;-77
2022/02/04 12:46:27;;;;;;;12.43;6.75;;;;;;;;;;4988859;28;20125;-77
2022/02/04 12:49:01;;;;;;;10.48;7.05;;;;;;;;;;5012342;28;20091;-77
2022/02/04 12:52:06;;;;;;;10.45;6.05;;;;;;;;;;5030269;28;20048;-77
2022/02/04 12:55:04;;;;;;;9.32;5.43;;;;;;;;;;5029335;28;20048;-77
2022/02/04 13:00:22;;;;;;;10.65;5.60;;;;;;;;;;5010202;28;20037;-76
2022/02/04 13:10:37;;;;;;;8.00;5.57;;;;;;;;;;5008110;28;20033;-77
2022/02/04 13:13:14;;;;;;;7.00;4.43;;;;;;;;;;4996161;28;20033;-78
2022/02/04 13:15:41;;;;;;;8.75;4.95;;;;;;;;;;5009826;28;20037;-77
2022/02/04 13:18:12;;;;;;;10.10;5.50;;;;;;;;;;5014020;28;20116;-77
2022/02/04 13:20:42;;;;;;;6.97;4.07;;;;;;;;;;5001552;28;20033;-77
2022/02/04 13:23:14;;;;;;;8.45;5.15;;;;;;;;;;5021352;28;20068;-77
2022/02/04 13:25:47;;;;;;;9.32;4.85;;;;;;;;;;5011553;28;20040;-77
2022/02/04 13:28:17;;;;;;;6.25;3.60;;;;;;;;;;5022378;28;20065;-77
2022/02/04 13:30:58;;;;;;;6.72;3.95;;;;;;;;;;4994229;28;20104;-77
2022/02/04 13:33:24;;;;;;;7.82;4.43;;;;;;;;;;4996364;28;20518;-77
2022/02/04 13:36:14;;;;;;;7.88;4.53;;;;;;;;;;4990684;28;20067;-77
2022/02/04 13:41:35;;;;;;;8.73;4.07;;;;;;;;;;5006579;28;20037;-77
2022/02/04 13:44:55;;;;;;;7.50;4.00;;;;;;;;;;5022507;28;20124;-77
2022/02/04 13:53:03;;;;;;;6.80;4.00;;;;;;;;;;5013531;28;20538;-77
2022/02/04 13:59:14;;;;;;;10.98;4.20;;;;;;;;;;5012997;28;20045;-77
2022/02/04 14:01:55;;;;;;;5.68;2.92;;;;;;;;;;5009644;28;20042;-77
2022/02/04 14:04:53;;;;;;;6.45;3.92;;;;;;;;;;5002529;28;20042;-77
2022/02/04 14:07:43;;;;;;;16.58;12.35;;;;;;;;;;5014331;28;20057;-77
2022/02/04 14:10:33;;;;;;;21.63;15.40;;;;;;;;;;4996002;28;20049;-77
2022/02/04 14:13:24;;;;;;;15.50;11.15;;;;;;;;;;5001811;28;20435;-77
2022/02/04 14:16:11;;;;;;;13.75;9.68;;;;;;;;;;5026139;28;20515;-77
2022/02/04 14:18:57;;;;;;;15.98;9.55;;;;;;;;;;5015839;28;20041;-77
2022/02/04 14:21:43;;;;;;;12.52;8.45;;;;;;;;;;5013335;28;20555;-77
2022/02/04 14:24:29;;;;;;;13.15;8.82;;;;;;;;;;5004352;28;20054;-77
2022/02/04 14:27:14;;;;;;;14.50;8.98;;;;;;;;;;5012123;28;20045;-77
2022/02/04 14:30:05;;;;;;;12.13;8.40;;;;;;;;;;5006231;28;20045;-77
2022/02/04 14:32:58;;;;;;;10.35;6.90;;;;;;;;;;5009212;28;20048;-77
2022/02/04 14:36:02;;;;;;;9.68;7.85;;;;;;;;;;5010468;28;20100;-77
2022/02/04 14:54:27;;;;;;;10.25;5.85;;;;;;;;;;5038656;28;20052;-77
2022/02/04 15:03:21;;;;;;;7.28;5.28;;;;;;;;;;5026732;28;20043;-75
2022/02/04 15:08:54;;;;;;;9.40;5.97;;;;;;;;;;5030897;28;20041;-75
2022/02/04 15:11:42;;;;;;;8.25;5.13;;;;;;;;;;5010227;28;20037;-76
2022/02/04 15:14:28;;;;;;;8.18;4.55;;;;;;;;;;5015306;28;20128;-76
2022/02/04 15:17:14;;;;;;;7.63;4.85;;;;;;;;;;5047479;28;20057;-76
2022/02/04 15:20:00;;;;;;;6.18;3.88;;;;;;;;;;5012636;28;20059;-76
2022/02/04 15:22:46;;;;;;;7.28;4.65;;;;;;;;;;5018434;28;20037;-76
2022/02/04 15:25:31;;;;;;;7.13;4.15;;;;;;;;;;5017945;28;20458;-76
2022/02/04 15:28:34;;;;;;;6.15;3.90;;;;;;;;;;5014994;28;20037;-75
2022/02/04 15:31:31;;;;;;;5.80;3.58;;;;;;;;;;5022996;28;20127;-76
2022/02/04 15:34:18;;;;;;;8.65;4.47;;;;;;;;;;5033759;28;20056;-76
2022/02/04 15:37:03;;;;;;;5.10;3.85;;;;;;;;;;5018840;28;20056;-76
2022/02/04 15:39:50;;;;;;;8.43;4.10;;;;;;;;;;5017631;28;20068;-76
2022/02/04 15:42:38;;;;;;;6.80;3.50;;;;;;;;;;5029044;28;20041;-76
2022/02/04 15:46:00;;;;;;;5.32;3.17;;;;;;;;;;5019926;28;20045;-77
2022/02/04 15:55:06;;;;;;;5.78;2.95;;;;;;;;;;5018683;28;20497;-77
2022/02/04 16:03:46;;;;;;;5.85;2.83;;;;;;;;;;5010672;28;20422;-77
2022/02/04 16:06:32;;;;;;;4.72;2.75;;;;;;;;;;5021132;28;20055;-76
2022/02/04 16:09:20;;;;;;;4.72;2.75;;;;;;;;;;5023175;28;20041;-76
2022/02/04 16:12:23;;;;;;;4.97;3.00;;;;;;;;;;5011050;28;20478;-76
2022/02/04 16:15:30;;;;;;;4.75;2.53;;;;;;;;;;5046807;28;20476;-76
2022/02/04 16:18:21;;;;;;;5.78;2.90;;;;;;;;;;5028525;28;20029;-75
2022/02/04 16:21:16;;;;;;;5.60;2.78;;;;;;;;;;5003608;28;20049;-76
2022/02/04 16:27:09;;;;;;;3.83;2.25;;;;;;;;;;5021973;28;20504;-75
2022/02/04 16:29:55;;;;;;;6.57;2.33;;;;;;;;;;5007992;28;20096;-77
2022/02/04 16:32:41;;;;;;;5.63;3.38;;;;;;;;;;5002386;28;20528;-77
2022/02/04 16:35:26;;;;;;;5.85;2.75;;;;;;;;;;5003576;28;20040;-77
2022/02/04 16:38:17;;;;;;;6.53;2.72;;;;;;;;;;5008980;28;20128;-77
2022/02/04 16:41:07;;;;;;;17.98;3.50;;;;;;;;;;5017302;28;20037;-77
2022/02/04 16:43:52;;;;;;;6.10;2.63;;;;;;;;;;5023607;28;20577;-77
2022/02/04 16:46:38;;;;;;;6.63;2.20;;;;;;;;;;4995890;28;20036;-77
2022/02/04 16:49:24;;;;;;;6.97;3.22;;;;;;;;;;5034085;28;20060;-77
2022/02/04 16:52:10;;;;;;;8.88;2.42;;;;;;;;;;5023051;28;20087;-77
2022/02/04 16:54:56;;;;;;;9.88;2.58;;;;;;;;;;5015514;28;20543;-77
2022/02/04 16:57:42;;;;;;;5.53;2.20;;;;;;;;;;5003597;28;20392;-77
2022/02/04 17:00:28;;;;;;;5.70;2.20;;;;;;;;;;4999932;28;20116;-77
2022/02/04 17:03:14;;;;;;;4.88;2.00;;;;;;;;;;4987891;28;20049;-77
2022/02/04 17:06:03;;;;;;;8.45;3.28;;;;;;;;;;5008310;28;20048;-77
2022/02/04 17:08:53;;;;;;;9.60;2.17;;;;;;;;;;5022753;28;20052;-77
2022/02/04 17:11:42;;;;;;;9.43;2.28;;;;;;;;;;5011629;28;20053;-77
2022/02/04 17:14:28;;;;;;;10.90;2.25;;;;;;;;;;5009570;28;20692;-77
2022/02/04 17:17:16;;;;;;;8.50;2.22;;;;;;;;;;5023440;28;20045;-77
2022/02/04 17:20:11;;;;;;;8.00;2.00;;;;;;;;;;5009153;28;20033;-77
2022/02/04 17:22:58;;;;;;;5.88;1.80;;;;;;;;;;5012088;28;20091;-77
2022/02/04 17:25:46;;;;;;;7.40;2.20;;;;;;;;;;5034752;28;20068;-77
2022/02/04 17:28:31;;;;;;;6.65;1.75;;;;;;;;;;5022756;28;20091;-77
2022/02/04 17:31:18;;;;;;;4.90;1.60;;;;;;;;;;5023919;28;20052;-77
2022/02/04 17:34:05;;;;;;;4.35;1.70;;;;;;;;;;5008400;28;20585;-77
2022/02/04 17:36:51;;;;;;;6.72;1.35;;;;;;;;;;5023289;28;20045;-77
2022/02/04 17:39:38;;;;;;;4.10;1.40;;;;;;;;;;5008619;28;20045;-77
2022/02/04 17:42:26;;;;;;;4.20;1.40;;;;;;;;;;5035647;28;20132;-77
2022/02/04 17:45:17;;;;;;;4.53;1.40;;;;;;;;;;5023383;28;20499;-77
2022/02/04 17:53:49;;;;;;;3.22;1.00;;;;;;;;;;5036371;28;20048;-77
2022/02/04 17:56:49;;;;;;;8.95;2.28;;;;;;;;;;5028118;28;20041;-77
2022/02/04 18:00:04;;;;;;;3.67;1.00;;;;;;;;;;5029990;28;20041;-77
2022/02/04 18:08:51;;;;;;;4.90;1.83;;;;;;;;;;5028709;28;20091;-77
2022/02/04 18:11:37;;;;;;;3.92;1.17;;;;;;;;;;5026329;28;20049;-77
2022/02/04 18:14:23;;;;;;;4.25;1.00;;;;;;;;;;5025691;28;20478;-77
2022/02/04 18:17:08;;;;;;;3.08;0.98;;;;;;;;;;5012406;28;20534;-77
2022/02/04 18:19:55;;;;;;;5.50;1.38;;;;;;;;;;5026562;28;20048;-77
2022/02/04 18:22:41;;;;;;;4.35;1.10;;;;;;;;;;5026742;28;20400;-77
2022/02/04 18:25:27;;;;;;;1.92;0.82;;;;;;;;;;5026428;28;20033;-77
2022/02/04 18:28:13;;;;;;;3.65;1.38;;;;;;;;;;5013165;28;20406;-77
2022/02/04 18:30:59;;;;;;;4.60;1.02;;;;;;;;;;5012827;28;20103;-77
2022/02/04 18:33:44;;;;;;;4.10;1.10;;;;;;;;;;5010995;28;20495;-77
2022/02/04 18:36:31;;;;;;;2.25;0.60;;;;;;;;;;5025650;28;20044;-77
2022/02/04 18:39:32;;;;;;;4.03;1.10;;;;;;;;;;5026154;28;20047;-77
2022/02/04 18:45:22;;;;;;;2.95;0.80;;;;;;;;;;5029340;28;20061;-77
2022/02/04 18:48:14;;;;;;;;;;;;;;;;;;5013875;28;20037;-77
2022/02/04 18:51:20;;;;;;;3.75;1.15;;;;;;;;;;5026226;28;20283;-77
2022/02/04 18:59:54;;;;;;;2.13;0.70;;;;;;;;;;5053281;28;20043;-77
2022/02/04 19:02:42;;;;;;;2.45;0.93;;;;;;;;;;5028862;28;20045;-77
2022/02/04 19:05:33;;;;;;;3.15;0.75;;;;;;;;;;5025465;28;20048;-77
2022/02/04 19:08:26;;;;;;;3.03;1.20;;;;;;;;;;5026797;28;20192;-77
2022/02/04 19:11:15;;;;;;;2.28;0.80;;;;;;;;;;5038814;28;20045;-77
2022/02/04 19:14:12;;;;;;;2.88;1.45;;;;;;;;;;5012115;28;20507;-77
2022/02/04 19:17:09;;;;;;;3.88;1.10;;;;;;;;;;5027086;28;20068;-77
2022/02/04 19:20:02;;;;;;;3.35;0.98;;;;;;;;;;5027135;28;20041;-77
2022/02/04 19:22:55;;;;;;;2.88;0.77;;;;;;;;;;5026547;28;20667;-77
2022/02/04 19:25:41;;;;;;;3.80;1.00;;;;;;;;;;5012744;28;20033;-77
2022/02/04 19:28:28;;;;;;;2.65;0.75;;;;;;;;;;5024666;28;20047;-77
2022/02/04 19:31:14;;;;;;;2.70;1.08;;;;;;;;;;5024826;28;20049;-77
2022/02/04 19:34:00;;;;;;;2.97;1.08;;;;;;;;;;5023845;28;20056;-77
2022/02/04 19:36:46;;;;;;;2.60;0.85;;;;;;;;;;5023936;28;20115;-77
2022/02/04 19:39:32;;;;;;;3.08;0.75;;;;;;;;;;5024463;28;20044;-76
2022/02/04 19:42:27;;;;;;;1.88;0.63;;;;;;;;;;5024205;28;20481;-77
2022/02/04 19:45:19;;;;;;;3.30;1.00;;;;;;;;;;5026370;28;20503;-77
2022/02/04 19:48:10;;;;;;;2.87;0.70;;;;;;;;;;5024845;28;20037;-77
2022/02/04 20:27:04;;;;;;;3.13;0.80;;;;;;;;;;5009109;28;20409;-77
2022/02/04 20:29:49;;;;;;;2.80;0.98;;;;;;;;;;5000641;28;20048;-77
2022/02/04 20:32:35;;;;;;;4.82;1.35;;;;;;;;;;5023397;28;20047;-78
2022/02/04 20:35:21;;;;;;;5.18;1.42;;;;;;;;;;5022224;28;20099;-78
2022/02/04 20:38:08;;;;;;;4.70;0.90;;;;;;;;;;4991015;28;20045;-79
2022/02/04 20:40:55;;;;;;;3.88;1.02;;;;;;;;;;4990297;28;20049;-78
2022/02/04 20:43:41;;;;;;;4.13;1.27;;;;;;;;;;5003797;28;20128;-78
2022/02/04 20:46:27;;;;;;;3.75;1.08;;;;;;;;;;5017916;28;20538;-77
2022/02/04 20:49:13;;;;;;;4.93;1.63;;;;;;;;;;5000730;28;20041;-77
2022/02/04 20:51:58;;;;;;;3.28;1.10;;;;;;;;;;5001949;28;20423;-77
2022/02/04 20:54:44;;;;;;;4.22;1.20;;;;;;;;;;5016247;28;20049;-77
2022/02/04 20:57:30;;;;;;;3.40;1.30;;;;;;;;;;5003423;28;20090;-77
2022/02/04 21:00:25;;;;;;;4.22;1.17;;;;;;;;;;5051100;28;20064;-77
2022/02/04 21:03:13;;;;;;;4.25;1.10;;;;;;;;;;5042454;28;20037;-77
2022/02/04 21:06:03;;;;;;;3.60;1.17;;;;;;;;;;5022882;28;20052;-78
2022/02/04 21:09:24;;;;;;;4.82;1.00;;;;;;;;;;5023266;28;20119;-77
2022/02/04 21:15:15;;;;;;;4.03;1.58;;;;;;;;;;5027522;28;20041;-77
2022/02/04 21:18:03;;;;;;;2.65;0.88;;;;;;;;;;5004549;28;20077;-77
2022/02/04 21:20:49;;;;;;;3.08;1.30;;;;;;;;;;5016366;28;20045;-78
2022/02/04 21:23:35;;;;;;;3.17;1.65;;;;;;;;;;5016757;28;20042;-76
2022/02/04 21:26:21;;;;;;;5.28;1.42;;;;;;;;;;5033836;28;20410;-76
2022/02/04 21:29:07;;;;;;;5.05;1.58;;;;;;;;;;5042407;28;20044;-77
2022/02/04 21:31:54;;;;;;;6.47;2.80;;;;;;;;;;5002019;28;20033;-76
2022/02/04 21:37:25;;;;;;;4.70;2.20;;;;;;;;;;5003117;28;20030;-76
2022/02/04 21:40:11;;;;;;;4.97;2.35;;;;;;;;;;5002770;28;20060;-76
2022/02/04 21:42:59;;;;;;;5.80;2.10;;;;;;;;;;4988901;28;20099;-76
2022/02/04 21:45:48;;;;;;;3.22;1.65;;;;;;;;;;5003529;28;20052;-76
2022/02/04 21:48:36;;;;;;;6.70;2.20;;;;;;;;;;5004097;28;20404;-77
2022/02/04 21:51:22;;;;;;;5.38;2.30;;;;;;;;;;5015247;28;20080;-76
2022/02/04 21:54:07;;;;;;;4.97;2.13;;;;;;;;;;5016391;28;20034;-76
2022/02/04 21:56:53;;;;;;;6.97;2.25;;;;;;;;;;5010506;28;20029;-76
2022/02/04 21:59:39;;;;;;;6.60;2.92;;;;;;;;;;5022762;28;20037;-76
2022/02/04 22:02:29;;;;;;;3.63;1.90;;;;;;;;;;5008033;28;20123;-77
2022/02/04 22:05:15;;;;;;;4.70;2.15;;;;;;;;;;5002015;28;20511;-79
2022/02/04 22:08:04;;;;;;;4.40;2.42;;;;;;;;;;4990281;28;20116;-78
2022/02/04 22:14:38;;;;;;;4.57;2.17;;;;;;;;;;5006628;28;20447;-77
2022/02/04 22:23:16;;;;;;;4.20;2.20;;;;;;;;;;5028440;28;20041;-77
2022/02/04 22:26:03;;;;;;;3.65;1.50;;;;;;;;;;5015968;28;20034;-76
2022/02/04 22:28:50;;;;;;;3.70;1.63;;;;;;;;;;5014968;28;20045;-76
2022/02/04 22:31:36;;;;;;;3.58;1.85;;;;;;;;;;4988004;28;20067;-76
2022/02/04 22:37:43;;;;;;;6.55;3.05;;;;;;;;;;5036493;28;20041;-76
2022/02/04 22:55:43;;;;;;;4.13;1.95;;;;;;;;;;4974208;28;20056;-76
2022/02/04 22:58:35;;;;;;;4.05;1.80;;;;;;;;;;5009235;28;20048;-76
2022/02/04 23:01:22;;;;;;;4.45;1.88;;;;;;;;;;4997034;28;20038;-76
2022/02/04 23:04:10;;;;;;;3.60;1.88;;;;;;;;;;5007854;28;20052;-76
2022/02/04 23:06:58;;;;;;;3.90;1.30;;;;;;;;;;4992320;28;20041;-76
2022/02/04 23:10:02;;;;;;;4.18;1.77;;;;;;;;;;5005908;28;20041;-76
2022/02/04 23:12:48;;;;;;;3.60;1.30;;;;;;;;;;5007411;28;20042;-76
2022/02/04 23:15:38;;;;;;;3.45;1.50;;;;;;;;;;5018479;28;20099;-76